createdAt,value
2018-11-12T00:01:31.830Z,63.85
2018-11-12T00:06:35.158Z,64.11
2018-11-12T00:11:39.248Z,64.20
2018-11-12T01:48:48.219Z,61.39
2018-11-12T01:53:51.542Z,62.33
2018-11-12T01:58:54.865Z,63.13
2018-11-12T03:35:54.910Z,62.35
2018-11-12T03:40:58.227Z,62.53
2018-11-12T04:49:19.222Z,64.53
2018-11-12T04:54:22.558Z,64.03
2018-11-12T04:59:26.074Z,65.29
2018-11-12T05:33:15.084Z,64.20
2018-11-12T05:38:18.496Z,63.95
2018-11-12T05:43:22.518Z,64.12
2018-11-12T05:48:25.850Z,63.84
2018-11-12T05:53:29.173Z,63.84
2018-11-12T05:58:32.497Z,63.78
2018-11-12T06:03:36.590Z,63.59
2018-11-12T06:08:40.907Z,63.97
2018-11-12T06:13:45.024Z,63.82
2018-11-12T06:18:48.353Z,63.82
2018-11-12T06:23:51.694Z,63.49
2018-11-12T06:28:55.058Z,63.04
2018-11-12T06:33:58.371Z,62.79
2018-11-12T06:39:02.498Z,62.41
2018-11-12T06:44:05.819Z,62.18
2018-11-12T06:49:09.155Z,62.11
2018-11-12T06:54:13.243Z,62.37
2018-11-12T06:59:17.327Z,62.53
2018-11-12T07:04:20.663Z,62.86
2018-11-12T07:09:23.982Z,63.03
2018-11-12T07:14:28.075Z,63.46
2018-11-12T07:19:32.166Z,62.82
2018-11-12T07:24:35.490Z,62.84
2018-11-12T07:29:38.815Z,63.01
2018-11-12T08:03:30.123Z,61.85
2018-11-12T08:08:34.142Z,61.73
2018-11-12T08:13:37.476Z,61.33
2018-11-12T09:04:43.015Z,58.80
2018-11-12T09:09:46.391Z,58.30
2018-11-12T09:14:50.450Z,58.00
2018-11-12T10:05:56.041Z,53.28
2018-11-12T10:11:01.345Z,52.25
2018-11-12T11:02:03.241Z,52.40
2018-11-12T11:07:06.577Z,52.38
2018-11-12T11:12:09.910Z,53.09
2018-11-12T12:03:16.212Z,46.97
2018-11-12T12:08:19.547Z,47.77
2018-11-12T12:13:22.937Z,47.83
2018-11-12T13:04:27.443Z,41.00
2018-11-12T13:09:30.779Z,39.95
2018-11-12T13:14:34.202Z,39.50
2018-11-12T14:05:39.992Z,43.78
2018-11-12T14:10:43.327Z,45.51
2018-11-12T15:01:49.522Z,44.07
2018-11-12T15:06:52.736Z,45.76
2018-11-12T15:11:56.071Z,45.88
2018-11-12T15:45:56.628Z,48.29
2018-11-12T15:51:00.016Z,48.50
2018-11-12T15:56:03.311Z,48.69
2018-11-12T16:35:37.630Z,52.43
2018-11-12T16:40:40.966Z,52.85
2018-11-12T16:45:45.311Z,53.58
2018-11-12T16:50:48.642Z,53.37
2018-11-12T16:55:51.976Z,52.83
2018-11-12T17:00:55.310Z,53.13
2018-11-12T17:05:58.647Z,52.76
2018-11-12T17:11:01.988Z,52.87
2018-11-12T17:16:06.084Z,52.99
2018-11-12T17:21:09.418Z,53.19
2018-11-12T17:26:13.520Z,53.79
2018-11-12T17:31:16.854Z,53.72
2018-11-12T17:36:20.197Z,53.81
2018-11-12T17:41:23.564Z,53.80
2018-11-12T17:46:26.908Z,54.06
2018-11-12T17:51:31.008Z,55.29
2018-11-12T17:56:34.339Z,55.76
2018-11-12T18:01:38.604Z,55.46
2018-11-12T18:06:41.799Z,55.16
2018-11-12T18:11:45.138Z,55.28
2018-11-12T18:16:48.490Z,55.14
2018-11-12T18:21:51.842Z,55.26
2018-11-12T18:26:55.183Z,55.34
2018-11-12T18:31:58.709Z,55.11
2018-11-12T18:37:01.851Z,55.24
2018-11-12T18:42:05.199Z,55.29
2018-11-12T18:47:08.531Z,55.48
2018-11-12T18:52:11.919Z,55.74
2018-11-12T18:57:15.217Z,56.63
2018-11-12T19:02:19.323Z,56.58
2018-11-12T19:07:22.667Z,56.94
2018-11-12T19:12:26.770Z,57.20
2018-11-12T19:17:30.105Z,57.23
2018-11-12T19:22:34.202Z,57.44
2018-11-12T19:27:38.317Z,57.37
2018-11-12T19:32:41.674Z,57.35
2018-11-12T19:37:45.777Z,57.60
2018-11-12T19:42:49.107Z,57.97
2018-11-12T19:47:52.443Z,57.64
2018-11-12T19:52:56.550Z,57.22
2018-11-12T19:57:59.883Z,57.23
2018-11-12T20:03:03.983Z,57.17
2018-11-12T20:08:07.332Z,57.16
2018-11-12T20:13:10.677Z,57.97
2018-11-12T20:18:14.006Z,57.94
2018-11-12T20:23:17.344Z,58.36
2018-11-12T20:28:20.671Z,58.20
2018-11-12T20:33:24.779Z,57.66
2018-11-12T20:38:28.122Z,57.60
2018-11-12T20:43:32.219Z,57.51
2018-11-12T20:48:35.554Z,57.57
2018-11-12T20:53:38.888Z,57.47
2018-11-12T20:58:42.219Z,57.62
2018-11-12T21:03:45.561Z,57.91
2018-11-12T21:08:48.902Z,58.11
2018-11-12T21:13:52.223Z,58.28
2018-11-12T21:18:56.314Z,58.83
2018-11-12T21:23:59.635Z,59.09
2018-11-12T21:29:03.075Z,59.78
2018-11-12T21:34:07.164Z,59.47
2018-11-12T21:39:10.478Z,59.50
2018-11-12T21:44:13.800Z,59.27
2018-11-12T21:49:17.118Z,58.95
2018-11-12T21:54:20.438Z,58.93
2018-11-12T21:59:23.865Z,59.10
2018-11-12T22:04:27.105Z,59.15
2018-11-12T22:09:30.423Z,59.13
2018-11-12T22:14:33.751Z,59.38
2018-11-12T22:19:37.226Z,60.16
2018-11-12T22:24:40.415Z,59.50
2018-11-12T22:29:43.753Z,60.18
2018-11-12T22:34:47.838Z,60.72
2018-11-12T22:39:51.171Z,59.94
2018-11-12T22:44:54.760Z,59.58
2018-11-12T22:49:58.374Z,59.61
2018-11-12T22:55:01.995Z,59.81
2018-11-12T23:00:05.372Z,59.94
2018-11-12T23:05:08.824Z,60.10
2018-11-12T23:10:12.339Z,60.14
2018-11-12T23:15:15.853Z,60.70
2018-11-12T23:20:19.409Z,61.81
2018-11-12T23:25:22.742Z,61.62
2018-11-12T23:30:26.833Z,61.62
2018-11-12T23:35:30.161Z,61.54
2018-11-12T23:40:33.495Z,60.92
2018-11-12T23:45:37.580Z,60.76
2018-11-12T23:50:40.914Z,60.23
2018-11-12T23:55:44.244Z,60.40
